Time;durP1;ratioP1;P1;durP2;ratioP2;P2;SDS_P1;SDS_P2;PMS_P1;PMS_P2;Temp;Humidity;BMP_temperature;BMP_pressure;BME280_temperature;BME280_humidity;BME280_pressure;Samples;Min_cycle;Max_cycle;Signal;HPM_P1;HPM_P2
2022/06/24 00:00:19;;;;;;;5.17;3.57;;;18.90;99.90;;;;;;2585723;54;21744;31
2022/06/24 00:02:51;;;;;;;10.70;4.57;;;18.90;99.90;;;;;;2585556;54;20047;31
2022/06/24 00:05:24;;;;;;;7.27;3.93;;;18.80;99.90;;;;;;2585961;54;20060;31
2022/06/24 00:07:59;;;;;;;5.60;3.65;;;18.80;99.90;;;;;;2585904;54;20096;31
2022/06/24 00:10:35;;;;;;;6.70;3.97;;;18.80;99.90;;;;;;2585583;54;20030;31
2022/06/24 00:13:10;;;;;;;6.28;3.95;;;18.80;99.90;;;;;;2585686;54;19946;31
2022/06/24 00:15:44;;;;;;;6.05;4.20;;;18.70;99.90;;;;;;2604264;46;21353;31
2022/06/24 00:18:19;;;;;;;8.60;4.00;;;18.70;99.90;;;;;;2585903;54;20959;31
2022/06/24 00:20:53;;;;;;;7.43;3.70;;;18.60;99.90;;;;;;2683917;39;21050;31
2022/06/24 00:23:27;;;;;;;5.33;3.93;;;18.50;99.90;;;;;;2585648;54;21178;31
2022/06/24 00:26:04;;;;;;;7.50;4.40;;;18.50;99.90;;;;;;2585782;54;20097;31
2022/06/24 00:28:37;;;;;;;5.57;4.50;;;18.40;99.90;;;;;;2603871;46;20061;31
2022/06/24 00:31:11;;;;;;;5.20;4.10;;;18.40;99.90;;;;;;2586097;54;20250;31
2022/06/24 00:33:46;;;;;;;4.90;4.35;;;18.30;99.90;;;;;;2585584;54;20029;31
2022/06/24 00:36:19;;;;;;;6.80;4.70;;;18.30;99.90;;;;;;2585680;54;21047;31
2022/06/24 00:38:54;;;;;;;9.55;4.90;;;18.20;99.90;;;;;;2683884;39;21058;31
2022/06/24 00:41:30;;;;;;;4.50;3.83;;;18.10;99.90;;;;;;2585779;54;20060;31
2022/06/24 00:44:05;;;;;;;5.30;4.25;;;18.20;99.90;;;;;;2585710;54;20072;31
2022/06/24 00:46:45;;;;;;;5.40;4.10;;;18.10;99.90;;;;;;2585797;54;20033;31
2022/06/24 00:49:16;;;;;;;6.00;4.00;;;18.10;99.90;;;;;;2585371;54;20911;31
2022/06/24 00:51:50;;;;;;;6.67;4.00;;;18.10;99.90;;;;;;2603932;46;20862;31
2022/06/24 00:54:25;;;;;;;7.50;4.30;;;18.10;99.90;;;;;;2773167;31;22549;31
2022/06/24 00:57:01;;;;;;;6.47;4.18;;;18.00;99.90;;;;;;2585820;54;20955;31
2022/06/24 00:59:36;;;;;;;5.00;4.35;;;18.00;99.90;;;;;;2585852;54;22520;31
2022/06/24 01:02:09;;;;;;;6.10;4.40;;;17.90;99.90;;;;;;2585749;54;20966;31
2022/06/24 01:04:43;;;;;;;7.20;4.53;;;17.90;99.90;;;;;;2585802;54;20030;31
2022/06/24 01:07:18;;;;;;;8.60;4.65;;;17.80;99.90;;;;;;2586039;54;20030;31
2022/06/24 01:09:50;;;;;;;5.88;4.72;;;17.80;99.90;;;;;;2604331;46;21282;31
2022/06/24 01:12:27;;;;;;;7.07;4.40;;;17.80;99.90;;;;;;2585411;54;20029;31
2022/06/24 01:15:00;;;;;;;5.65;4.10;;;17.80;99.90;;;;;;2585601;54;20241;31
2022/06/24 01:17:32;;;;;;;4.75;4.30;;;17.70;99.90;;;;;;2683620;39;22695;31
2022/06/24 01:20:09;;;;;;;6.55;4.00;;;17.70;99.90;;;;;;2585503;54;20046;31
2022/06/24 01:22:44;;;;;;;6.82;4.20;;;17.70;99.90;;;;;;2585441;54;20108;31
2022/06/24 01:25:18;;;;;;;6.70;4.50;;;17.60;99.90;;;;;;2585572;54;20081;31
2022/06/24 01:27:52;;;;;;;6.15;4.55;;;17.50;99.90;;;;;;2585591;54;20875;31
2022/06/24 01:30:25;;;;;;;7.25;4.50;;;17.50;99.90;;;;;;2585453;54;21452;31
2022/06/24 01:32:59;;;;;;;5.85;4.50;;;17.40;99.90;;;;;;2585562;54;20926;31
2022/06/24 01:35:33;;;;;;;5.70;4.50;;;17.50;99.90;;;;;;2585091;54;21471;31
2022/06/24 01:38:11;;;;;;;9.38;4.80;;;17.40;99.90;;;;;;2585486;54;20084;31
2022/06/24 01:40:44;;;;;;;7.13;4.03;;;17.40;99.90;;;;;;2584469;54;21030;31
2022/06/24 01:43:20;;;;;;;8.15;4.50;;;17.40;99.90;;;;;;2585422;54;20132;31
2022/06/24 01:45:57;;;;;;;5.60;4.25;;;17.30;99.90;;;;;;2603733;46;21495;31
2022/06/24 01:48:31;;;;;;;9.20;5.80;;;17.40;99.90;;;;;;2585808;54;20890;31
2022/06/24 01:51:05;;;;;;;8.40;5.60;;;17.20;99.90;;;;;;2585657;54;20937;31
2022/06/24 01:53:43;;;;;;;7.00;5.10;;;17.20;99.90;;;;;;2603967;46;22493;31
2022/06/24 01:56:15;;;;;;;5.03;4.35;;;17.10;99.90;;;;;;2603954;46;20157;31
2022/06/24 01:58:49;;;;;;;4.70;4.20;;;17.20;99.90;;;;;;2585408;54;21859;31
2022/06/24 02:01:24;;;;;;;;;;;17.10;99.90;;;;;;2585761;54;20049;31
2022/06/24 02:03:56;;;;;;;8.27;4.82;;;17.10;99.90;;;;;;2604045;46;20005;31
2022/06/24 02:06:30;;;;;;;7.13;4.55;;;17.00;99.90;;;;;;2585383;54;21086;31
2022/06/24 02:09:07;;;;;;;8.70;5.83;;;17.00;99.90;;;;;;2603996;46;20034;31
2022/06/24 02:14:24;;;;;;;5.38;4.78;;;16.90;99.90;;;;;;2585595;54;20332;31
2022/06/24 02:16:58;;;;;;;7.30;5.40;;;16.90;99.90;;;;;;2585525;54;20773;31
2022/06/24 02:19:33;;;;;;;6.05;5.10;;;16.80;99.90;;;;;;2585513;54;20891;31
2022/06/24 02:22:06;;;;;;;7.67;5.37;;;16.80;99.90;;;;;;2585455;54;20972;31
2022/06/24 02:24:41;;;;;;;7.07;5.63;;;16.80;99.90;;;;;;2585526;54;20002;31
2022/06/24 02:27:13;;;;;;;9.20;4.95;;;16.80;99.90;;;;;;2585160;54;21137;31
2022/06/24 02:29:47;;;;;;;6.40;4.28;;;16.70;99.90;;;;;;2585645;54;20889;31
2022/06/24 02:32:21;;;;;;;5.17;4.27;;;16.70;99.90;;;;;;2603791;46;20097;31
2022/06/24 02:34:55;;;;;;;8.40;5.40;;;16.70;99.90;;;;;;2585204;54;20294;31
2022/06/24 02:37:30;;;;;;;6.28;4.95;;;16.60;99.90;;;;;;2585290;54;20097;31
2022/06/24 02:42:57;;;;;;;7.07;5.32;;;16.60;99.90;;;;;;2603543;46;20089;31
2022/06/24 02:45:29;;;;;;;8.25;5.30;;;16.60;99.90;;;;;;2584945;54;20030;31
2022/06/24 02:48:01;;;;;;;7.20;5.93;;;16.50;99.90;;;;;;2603965;47;22293;31
2022/06/24 02:50:42;;;;;;;9.95;5.55;;;16.50;99.90;;;;;;2585292;54;20111;31
2022/06/24 02:53:20;;;;;;;9.67;5.60;;;16.40;99.90;;;;;;2585589;54;20923;31
2022/06/24 02:56:00;;;;;;;5.75;4.40;;;16.50;99.90;;;;;;2585427;54;20931;31
2022/06/24 02:58:38;;;;;;;5.72;4.65;;;16.50;99.90;;;;;;2585204;54;20107;31
2022/06/24 03:01:14;;;;;;;7.85;4.80;;;16.50;99.90;;;;;;2598546;47;21019;31
2022/06/24 03:03:50;;;;;;;4.85;4.00;;;16.40;99.90;;;;;;2603519;47;20912;31
2022/06/24 03:06:25;;;;;;;6.25;5.20;;;16.40;99.90;;;;;;2584447;54;20966;31
2022/06/24 03:09:01;;;;;;;5.60;4.70;;;16.50;99.90;;;;;;2584237;54;20037;31
2022/06/24 03:11:41;;;;;;;5.95;4.80;;;16.30;99.90;;;;;;2603537;47;20829;31
2022/06/24 03:14:17;;;;;;;6.45;5.20;;;16.40;99.90;;;;;;2584943;54;20034;31
2022/06/24 03:16:52;;;;;;;6.37;4.57;;;16.40;99.90;;;;;;2584252;54;20108;31
2022/06/24 03:19:27;;;;;;;6.97;4.83;;;16.50;99.90;;;;;;2584852;54;20085;31
2022/06/24 03:22:02;;;;;;;6.78;5.07;;;16.50;99.90;;;;;;2603866;47;20908;31
2022/06/24 03:24:41;;;;;;;5.97;5.13;;;16.50;99.90;;;;;;2584117;54;20034;31
2022/06/24 03:27:25;;;;;;;7.47;4.68;;;16.60;99.90;;;;;;2599789;47;21264;31
2022/06/24 03:30:01;;;;;;;7.27;5.50;;;16.80;99.90;;;;;;2584683;54;20038;31
2022/06/24 03:32:38;;;;;;;4.50;4.00;;;16.80;99.90;;;;;;2585386;54;21457;31
2022/06/24 03:35:19;;;;;;;6.10;4.75;;;16.90;99.90;;;;;;2585103;54;20790;31
2022/06/24 03:37:57;;;;;;;7.65;4.60;;;17.10;99.90;;;;;;2585116;54;20027;31
2022/06/24 03:40:32;;;;;;;6.15;4.50;;;17.20;99.90;;;;;;2603359;47;20061;31
2022/06/24 03:43:13;;;;;;;8.95;4.18;;;17.40;99.90;;;;;;2585363;54;20026;31
2022/06/24 03:46:01;;;;;;;6.40;5.30;;;17.60;99.90;;;;;;2585125;54;20954;31
2022/06/24 03:48:39;;;;;;;10.25;5.13;;;17.70;99.90;;;;;;2584919;54;20930;31
2022/06/24 03:51:12;;;;;;;5.95;4.47;;;17.80;99.90;;;;;;2585153;54;20085;31
2022/06/24 03:53:46;;;;;;;6.65;4.45;;;18.00;99.90;;;;;;2585105;54;20037;31
2022/06/24 03:56:21;;;;;;;22.50;5.50;;;18.10;99.90;;;;;;2585019;54;20130;31
2022/06/24 03:59:01;;;;;;;7.07;4.88;;;18.30;99.90;;;;;;2701978;39;22726;31
2022/06/24 04:01:34;;;;;;;5.85;4.97;;;18.40;99.90;;;;;;2586758;46;22007;31
2022/06/24 04:04:11;;;;;;;9.20;5.33;;;18.50;99.90;;;;;;2585769;54;20796;31
2022/06/24 04:06:48;;;;;;;10.57;5.47;;;18.70;99.90;;;;;;2584953;54;20932;31
2022/06/24 04:09:22;;;;;;;8.52;5.15;;;18.80;99.90;;;;;;2585080;54;20030;31
2022/06/24 04:12:02;;;;;;;7.30;5.30;;;19.00;99.90;;;;;;2585773;54;20093;31
2022/06/24 04:17:41;;;;;;;10.97;5.67;;;19.30;99.90;;;;;;2585341;54;20032;31
2022/06/24 04:20:17;;;;;;;9.38;5.57;;;19.50;99.90;;;;;;2585695;54;20918;31
2022/06/24 04:22:52;;;;;;;7.90;5.05;;;19.60;99.90;;;;;;2585729;54;20945;31
2022/06/24 04:25:30;;;;;;;9.40;4.80;;;19.70;99.90;;;;;;2603847;46;20130;31
2022/06/24 04:28:06;;;;;;;8.15;5.65;;;19.80;99.90;;;;;;2585675;54;20038;31
2022/06/24 04:30:46;;;;;;;6.18;5.45;;;20.00;99.90;;;;;;2595140;46;20061;31
2022/06/24 04:33:21;;;;;;;5.20;4.70;;;20.20;99.90;;;;;;2584781;54;20034;31
2022/06/24 04:35:55;;;;;;;8.13;4.87;;;20.30;99.90;;;;;;2584779;54;20112;31
2022/06/24 04:38:28;;;;;;;10.57;5.47;;;20.50;99.90;;;;;;2603821;46;21249;31
2022/06/24 04:41:03;;;;;;;8.20;5.05;;;20.60;99.90;;;;;;2585567;54;20038;31
2022/06/24 04:43:42;;;;;;;8.70;4.25;;;20.80;99.90;;;;;;2585566;54;20798;31
2022/06/24 04:46:22;;;;;;;10.30;4.80;;;21.10;99.90;;;;;;2585175;54;21021;31
2022/06/24 04:48:56;;;;;;;8.85;4.90;;;21.10;99.90;;;;;;2585676;54;20054;31
2022/06/24 04:51:32;;;;;;;5.90;4.63;;;21.30;99.90;;;;;;2585496;54;20085;31
2022/06/24 04:54:08;;;;;;;6.15;3.70;;;21.40;99.90;;;;;;2604156;46;21001;31
2022/06/24 04:56:44;;;;;;;7.72;4.03;;;21.60;99.90;;;;;;2584490;54;20091;31
2022/06/24 04:59:21;;;;;;;10.82;5.00;;;21.80;99.90;;;;;;2683878;39;21042;31
2022/06/24 05:01:59;;;;;;;7.07;4.47;;;21.90;99.90;;;;;;2585414;54;20026;31
2022/06/24 05:04:41;;;;;;;6.93;4.20;;;21.90;99.90;;;;;;2585769;54;20030;31
2022/06/24 05:07:20;;;;;;;7.07;3.95;;;22.10;99.90;;;;;;2585498;54;20898;31
2022/06/24 05:09:58;;;;;;;6.13;4.40;;;22.20;99.90;;;;;;2585427;54;20859;31
2022/06/24 05:12:34;;;;;;;9.65;4.57;;;22.30;99.90;;;;;;2604260;46;20924;31
2022/06/24 05:15:08;;;;;;;12.32;4.40;;;22.40;99.90;;;;;;2585772;54;20946;31
2022/06/24 05:17:46;;;;;;;10.50;4.47;;;22.50;99.90;;;;;;2585600;54;20850;31
2022/06/24 05:20:24;;;;;;;8.13;4.10;;;22.70;99.90;;;;;;2604138;46;21145;31
2022/06/24 05:23:01;;;;;;;6.55;3.70;;;22.80;99.90;;;;;;2585556;54;20971;31
2022/06/24 05:25:37;;;;;;;5.75;3.40;;;22.90;99.90;;;;;;2585385;54;20821;31
2022/06/24 05:28:16;;;;;;;6.90;4.13;;;23.10;99.90;;;;;;2585540;54;20087;31
2022/06/24 05:30:56;;;;;;;6.70;3.70;;;23.20;99.90;;;;;;2585831;54;20030;31
2022/06/24 05:33:37;;;;;;;8.15;4.28;;;23.40;99.90;;;;;;2603889;46;20030;31
2022/06/24 05:36:14;;;;;;;8.57;3.90;;;23.40;99.90;;;;;;2585508;54;20898;31
2022/06/24 05:38:50;;;;;;;5.32;3.72;;;23.60;99.90;;;;;;2585235;54;20026;31
2022/06/24 05:41:27;;;;;;;7.57;3.53;;;23.60;99.90;;;;;;2585487;54;20791;31
2022/06/24 05:44:02;;;;;;;7.10;3.77;;;23.80;99.90;;;;;;2585579;54;22425;31
2022/06/24 05:46:41;;;;;;;7.47;3.55;;;23.90;99.90;;;;;;2584386;54;20893;31
2022/06/24 05:49:21;;;;;;;4.90;3.40;;;24.10;99.90;;;;;;2585155;54;20035;31
2022/06/24 05:51:59;;;;;;;5.05;3.50;;;24.30;99.90;;;;;;2589681;46;21357;31
2022/06/24 05:57:22;;;;;;;5.70;3.40;;;24.70;99.90;;;;;;2585082;54;20033;31
2022/06/24 06:00:00;;;;;;;5.10;3.83;;;24.70;99.90;;;;;;2683000;39;20411;31
2022/06/24 06:02:39;;;;;;;7.32;3.15;;;24.70;99.90;;;;;;2584606;54;20941;31
2022/06/24 06:05:27;;;;;;;6.03;3.23;;;24.70;99.90;;;;;;2584292;54;20027;31
2022/06/24 06:08:07;;;;;;;8.00;4.57;;;24.80;99.90;;;;;;2585391;54;20038;31
2022/06/24 06:10:48;;;;;;;5.00;3.88;;;24.80;99.90;;;;;;2585283;54;20052;31
2022/06/24 06:13:29;;;;;;;7.60;3.05;;;24.90;99.90;;;;;;2584716;54;20033;31
2022/06/24 06:16:05;;;;;;;6.70;3.50;;;25.20;99.90;;;;;;2584422;54;20795;31
2022/06/24 06:18:47;;;;;;;8.13;3.22;;;25.30;99.90;;;;;;2584542;54;20889;31
2022/06/24 06:21:29;;;;;;;5.85;3.60;;;25.40;99.90;;;;;;2585293;54;20979;31
2022/06/24 06:24:10;;;;;;;6.65;3.50;;;25.50;99.90;;;;;;2603962;46;20489;31
2022/06/24 06:26:54;;;;;;;6.70;3.30;;;25.60;99.90;;;;;;2584171;54;20034;31
2022/06/24 06:29:34;;;;;;;6.57;3.10;;;25.70;99.90;;;;;;2584079;54;20053;31
2022/06/24 06:32:12;;;;;;;11.10;3.33;;;25.80;99.90;;;;;;2584610;54;21189;31
2022/06/24 06:34:50;;;;;;;;;;;26.00;99.90;;;;;;2584604;54;20273;31
2022/06/24 06:37:35;;;;;;;8.98;3.22;;;26.10;99.90;;;;;;2584896;54;20832;31
2022/06/24 06:40:17;;;;;;;5.87;3.50;;;26.20;99.90;;;;;;2585214;54;20768;31
2022/06/24 06:42:55;;;;;;;9.90;3.27;;;26.30;99.90;;;;;;2585275;54;20496;31
2022/06/24 06:45:32;;;;;;;5.07;2.85;;;26.40;99.60;;;;;;2585178;54;20026;31
2022/06/24 06:48:14;;;;;;;2.88;2.40;;;26.50;99.00;;;;;;2585237;54;20077;31
2022/06/24 06:50:48;;;;;;;5.32;3.10;;;26.70;98.30;;;;;;2603424;46;21012;31
2022/06/24 06:53:27;;;;;;;6.90;2.80;;;26.80;98.00;;;;;;2585036;54;20038;31
2022/06/24 06:56:01;;;;;;;5.00;2.90;;;27.10;97.40;;;;;;2585145;54;21197;31
2022/06/24 06:58:34;;;;;;;4.72;2.50;;;27.30;97.50;;;;;;2584886;54;20910;31
2022/06/24 07:01:10;;;;;;;4.82;2.50;;;27.40;96.00;;;;;;2602977;47;20817;31
2022/06/24 07:09:54;;;;;;;4.78;2.22;;;27.30;95.20;;;;;;2584455;54;20899;31
2022/06/24 07:12:32;;;;;;;6.95;2.92;;;27.40;94.70;;;;;;2603094;47;20860;31
2022/06/24 07:18:00;;;;;;;7.97;2.37;;;27.50;93.20;;;;;;2584847;54;20059;31
2022/06/24 07:20:52;;;;;;;6.40;2.10;;;27.60;93.20;;;;;;2603109;47;21281;31
2022/06/24 07:23:29;;;;;;;4.70;1.90;;;27.80;93.00;;;;;;2584474;54;20238;31
2022/06/24 07:26:33;;;;;;;6.07;2.03;;;27.80;92.40;;;;;;2584807;54;20068;31
2022/06/24 07:29:12;;;;;;;4.35;1.88;;;27.90;92.80;;;;;;2602964;47;20035;31
2022/06/24 07:31:54;;;;;;;6.05;2.53;;;28.10;91.70;;;;;;2584790;54;20030;31
2022/06/24 07:34:37;;;;;;;6.95;2.10;;;28.10;90.90;;;;;;2603521;47;20022;31
2022/06/24 07:37:15;;;;;;;5.15;2.35;;;28.20;91.30;;;;;;2585431;54;20816;31
2022/06/24 07:39:54;;;;;;;5.22;1.98;;;28.30;91.60;;;;;;2603971;46;20787;31
2022/06/24 07:42:34;;;;;;;4.63;2.58;;;28.20;90.10;;;;;;2584598;54;20041;31
2022/06/24 07:45:14;;;;;;;5.43;2.00;;;28.40;90.20;;;;;;2584811;54;20046;31
2022/06/24 07:47:48;;;;;;;5.00;2.15;;;28.30;88.80;;;;;;2584576;54;20969;31
2022/06/24 07:50:21;;;;;;;7.10;1.80;;;28.20;87.90;;;;;;2584599;54;20073;31
2022/06/24 07:53:00;;;;;;;7.60;2.10;;;28.40;89.60;;;;;;2584556;54;20795;31
2022/06/24 07:58:35;;;;;;;3.83;2.22;;;28.60;88.90;;;;;;2585105;54;21043;31
2022/06/24 08:01:11;;;;;;;5.28;1.92;;;28.90;88.00;;;;;;2585420;54;21438;31
2022/06/24 08:03:46;;;;;;;7.40;2.28;;;28.90;87.80;;;;;;2585002;54;20026;31
2022/06/24 08:06:22;;;;;;;5.40;2.10;;;29.00;87.00;;;;;;2585623;54;20042;31
2022/06/24 08:08:57;;;;;;;5.85;1.80;;;29.10;86.40;;;;;;2683321;39;20599;31
2022/06/24 08:11:31;;;;;;;;;;;29.20;86.00;;;;;;2585185;54;20956;31
2022/06/24 08:14:14;;;;;;;3.90;1.73;;;29.30;85.80;;;;;;2585673;54;19934;31
2022/06/24 08:16:50;;;;;;;4.93;1.70;;;29.50;85.20;;;;;;2585466;54;20030;31
2022/06/24 08:19:25;;;;;;;3.95;1.80;;;29.50;84.30;;;;;;2585270;54;20027;31
2022/06/24 08:22:00;;;;;;;4.43;1.70;;;29.50;84.90;;;;;;2585322;54;20062;31
2022/06/24 08:24:35;;;;;;;3.80;1.52;;;29.40;83.60;;;;;;2585711;54;20296;31
2022/06/24 08:27:27;;;;;;;3.30;1.95;;;29.60;85.20;;;;;;2603422;46;20030;31
2022/06/24 08:30:13;;;;;;;5.10;2.10;;;29.90;84.50;;;;;;2585211;54;20791;31
2022/06/24 08:32:49;;;;;;;3.85;1.90;;;30.10;83.50;;;;;;2585663;54;21971;31
2022/06/24 08:38:36;;;;;;;7.55;2.20;;;30.20;82.20;;;;;;2584996;54;20056;31
2022/06/24 08:41:09;;;;;;;3.70;2.00;;;30.30;82.40;;;;;;2603493;46;20934;31
2022/06/24 08:43:44;;;;;;;4.10;1.95;;;30.40;82.80;;;;;;2585209;54;21051;31
2022/06/24 08:46:28;;;;;;;4.00;2.00;;;30.20;82.40;;;;;;2584785;54;20044;31
2022/06/24 08:49:01;;;;;;;3.85;2.00;;;30.20;83.90;;;;;;2584028;54;20047;31
2022/06/24 08:51:37;;;;;;;4.13;2.15;;;30.40;84.40;;;;;;2583768;54;20053;31
2022/06/24 08:54:13;;;;;;;4.30;2.45;;;30.60;85.20;;;;;;2600193;46;20944;31
2022/06/24 08:57:06;;;;;;;7.82;2.17;;;30.70;84.30;;;;;;2584317;54;20907;31
2022/06/24 08:59:42;;;;;;;3.05;2.10;;;30.90;83.30;;;;;;2602948;46;20864;31
2022/06/24 09:02:25;;;;;;;3.13;2.05;;;30.70;83.40;;;;;;2602893;46;21897;31
2022/06/24 09:05:01;;;;;;;3.97;1.88;;;30.70;82.20;;;;;;2603453;46;20026;31
2022/06/24 09:07:37;;;;;;;7.90;2.55;;;30.60;81.40;;;;;;2585105;54;21032;31
2022/06/24 09:10:14;;;;;;;6.25;2.00;;;30.60;83.10;;;;;;2585245;54;20108;31
2022/06/24 09:12:49;;;;;;;3.60;2.30;;;30.90;83.40;;;;;;2585212;54;20933;31
2022/06/24 09:15:27;;;;;;;4.38;2.50;;;30.80;81.80;;;;;;2682018;39;21503;31
2022/06/24 09:18:09;;;;;;;6.75;2.08;;;30.80;82.30;;;;;;2602815;46;20815;31
2022/06/24 09:20:44;;;;;;;5.43;2.17;;;30.90;81.20;;;;;;2583574;54;20975;31
2022/06/24 09:23:17;;;;;;;4.67;2.30;;;31.00;82.40;;;;;;2582123;54;20485;31
2022/06/24 09:25:56;;;;;;;8.00;2.63;;;31.00;81.20;;;;;;2584742;54;20896;31
2022/06/24 09:28:31;;;;;;;3.70;2.40;;;31.00;80.80;;;;;;2603014;46;20030;31
2022/06/24 09:31:12;;;;;;;5.35;2.00;;;31.10;80.90;;;;;;2584296;54;20034;31
2022/06/24 09:33:52;;;;;;;5.05;2.05;;;31.00;80.50;;;;;;2681997;39;21405;31
2022/06/24 09:36:27;;;;;;;5.25;1.65;;;31.10;80.90;;;;;;2603648;46;20908;31
2022/06/24 09:39:02;;;;;;;3.60;2.40;;;31.00;80.90;;;;;;2585247;54;20921;31
2022/06/24 09:41:45;;;;;;;4.13;2.10;;;31.10;80.20;;;;;;2585300;54;20309;31
2022/06/24 09:44:18;;;;;;;4.90;2.10;;;31.10;80.10;;;;;;2585215;54;20988;31
2022/06/24 09:46:51;;;;;;;4.25;1.85;;;31.20;81.50;;;;;;2585283;54;20044;31
2022/06/24 09:49:29;;;;;;;6.57;2.60;;;31.30;80.20;;;;;;2585046;54;20953;31
2022/06/24 09:52:04;;;;;;;4.00;1.80;;;31.40;79.30;;;;;;2583959;54;21287;31
2022/06/24 09:54:41;;;;;;;8.20;2.00;;;31.40;79.90;;;;;;2603643;46;20042;31
2022/06/24 09:57:18;;;;;;;5.20;1.90;;;31.40;78.40;;;;;;2603612;46;20074;31
2022/06/24 10:02:38;;;;;;;4.10;1.63;;;31.20;77.90;;;;;;2603557;46;20929;31
2022/06/24 10:05:18;;;;;;;3.60;1.90;;;31.30;77.30;;;;;;2597566;46;20112;31
2022/06/24 10:07:51;;;;;;;3.77;2.13;;;31.20;77.50;;;;;;2584907;54;20965;31
2022/06/24 10:10:29;;;;;;;4.30;1.58;;;31.20;77.70;;;;;;2585272;54;20269;31
2022/06/24 10:13:09;;;;;;;8.18;2.00;;;31.30;77.70;;;;;;2584250;54;20938;31
2022/06/24 10:15:48;;;;;;;3.90;1.90;;;31.40;78.30;;;;;;2585004;54;20944;31
2022/06/24 10:18:27;;;;;;;3.30;2.15;;;31.40;78.00;;;;;;2584931;54;20054;31
2022/06/24 10:21:06;;;;;;;7.30;1.87;;;31.50;78.10;;;;;;2603655;46;20915;31
2022/06/24 10:23:43;;;;;;;3.70;1.63;;;31.50;76.50;;;;;;2585176;54;21127;31
2022/06/24 10:26:24;;;;;;;5.45;1.70;;;31.40;75.90;;;;;;2584819;54;20230;31
2022/06/24 10:29:21;;;;;;;3.22;1.85;;;31.50;76.40;;;;;;2584945;54;20907;31
2022/06/24 10:31:57;;;;;;;3.00;1.80;;;31.40;75.20;;;;;;2585011;54;20932;31
2022/06/24 10:34:37;;;;;;;3.55;1.80;;;31.30;75.80;;;;;;2603167;46;20851;31
2022/06/24 10:37:30;;;;;;;4.40;1.90;;;31.40;75.80;;;;;;2584873;54;20913;31
2022/06/24 10:40:07;;;;;;;4.15;2.15;;;31.20;74.80;;;;;;2585035;54;20034;31
2022/06/24 10:42:42;;;;;;;4.15;1.90;;;31.10;75.10;;;;;;2584899;54;20057;31
2022/06/24 10:48:16;;;;;;;3.47;1.63;;;30.90;75.40;;;;;;2603509;46;20081;31
2022/06/24 10:51:15;;;;;;;2.63;1.60;;;31.10;74.90;;;;;;2584953;54;20085;31
2022/06/24 10:54:21;;;;;;;3.30;1.60;;;31.10;74.00;;;;;;2585077;54;20142;31
2022/06/24 10:56:58;;;;;;;5.22;2.08;;;31.00;74.10;;;;;;2585278;54;22451;31
2022/06/24 10:59:35;;;;;;;5.10;1.70;;;31.00;74.30;;;;;;2585069;54;20030;31
2022/06/24 11:02:11;;;;;;;3.30;1.15;;;31.00;73.60;;;;;;2583661;54;20086;31
2022/06/24 11:04:44;;;;;;;3.75;1.50;;;31.00;73.30;;;;;;2701414;39;21078;31
2022/06/24 11:07:22;;;;;;;3.40;1.95;;;30.90;74.20;;;;;;2584947;54;20076;31
2022/06/24 11:10:00;;;;;;;4.90;1.90;;;30.80;74.60;;;;;;2772718;31;20647;31
2022/06/24 11:12:35;;;;;;;3.95;2.00;;;30.80;75.40;;;;;;2585841;54;20924;31
2022/06/24 11:15:12;;;;;;;2.65;1.52;;;30.80;74.90;;;;;;2585587;54;20053;31
2022/06/24 11:17:48;;;;;;;4.63;1.80;;;30.70;75.50;;;;;;2585410;54;20023;31
2022/06/24 11:20:25;;;;;;;6.05;1.85;;;30.60;74.80;;;;;;2585319;54;20871;31
2022/06/24 11:23:03;;;;;;;3.35;1.67;;;30.60;76.50;;;;;;2585584;54;20101;31
2022/06/24 11:25:43;;;;;;;4.95;2.08;;;30.70;75.30;;;;;;2585631;54;20030;31
2022/06/24 11:28:22;;;;;;;4.13;1.85;;;30.60;74.50;;;;;;2585571;54;20030;31
2022/06/24 11:30:58;;;;;;;3.23;1.30;;;30.70;75.00;;;;;;2585781;54;20911;31
2022/06/24 11:33:35;;;;;;;3.78;1.60;;;30.60;73.30;;;;;;2585438;54;20867;31
2022/06/24 11:36:14;;;;;;;5.10;1.70;;;30.50;74.10;;;;;;2585781;54;20026;31
2022/06/24 11:38:54;;;;;;;4.83;1.60;;;30.50;74.60;;;;;;2585671;54;20047;31
2022/06/24 11:41:33;;;;;;;6.90;2.00;;;30.50;74.80;;;;;;2585563;54;21129;31
2022/06/24 11:44:37;;;;;;;3.40;1.20;;;30.60;74.60;;;;;;2585570;54;20081;31
2022/06/24 11:47:15;;;;;;;2.40;1.60;;;30.60;74.00;;;;;;2585602;54;21213;31
2022/06/24 11:49:56;;;;;;;3.63;1.90;;;30.70;73.90;;;;;;2585228;54;20122;31
2022/06/24 11:52:48;;;;;;;4.22;1.67;;;30.70;74.40;;;;;;2585721;54;20026;31
2022/06/24 11:55:27;;;;;;;3.83;2.03;;;30.80;75.10;;;;;;2604039;46;20030;31
2022/06/24 11:58:11;;;;;;;9.32;2.70;;;30.90;74.50;;;;;;2584402;54;20045;31
2022/06/24 12:00:47;;;;;;;3.92;2.00;;;30.80;74.60;;;;;;2585463;54;20115;31
2022/06/24 12:03:26;;;;;;;3.60;1.60;;;30.70;74.10;;;;;;2604134;46;20970;31
2022/06/24 12:06:03;;;;;;;3.38;1.52;;;30.60;72.60;;;;;;2585636;54;20900;31
2022/06/24 12:08:42;;;;;;;2.75;1.73;;;30.50;73.20;;;;;;2585506;54;20049;31
2022/06/24 12:11:22;;;;;;;4.70;1.70;;;30.40;73.40;;;;;;2585536;54;20150;31
2022/06/24 12:14:02;;;;;;;2.90;1.60;;;30.30;73.70;;;;;;2603934;46;20050;31
2022/06/24 12:17:02;;;;;;;4.30;1.20;;;30.40;74.80;;;;;;2585567;54;20026;31
2022/06/24 12:19:41;;;;;;;5.22;1.52;;;30.50;74.10;;;;;;2682867;39;21620;31
2022/06/24 12:22:18;;;;;;;4.15;1.40;;;30.50;73.60;;;;;;2585125;54;20906;31
2022/06/24 12:25:04;;;;;;;30.87;7.87;;;30.50;74.20;;;;;;2585437;54;20034;31
2022/06/24 12:27:43;;;;;;;59.97;14.00;;;30.40;74.30;;;;;;2603693;46;20313;31
2022/06/24 12:30:16;;;;;;;6.45;2.63;;;30.40;74.80;;;;;;2585201;54;20947;31
2022/06/24 12:33:00;;;;;;;5.10;2.00;;;30.40;75.40;;;;;;2585301;54;20022;31
2022/06/24 12:35:38;;;;;;;7.60;1.75;;;30.40;75.00;;;;;;2683125;39;21567;31
2022/06/24 12:38:27;;;;;;;4.97;2.10;;;30.40;75.10;;;;;;2585282;54;19961;31
2022/06/24 12:41:13;;;;;;;6.37;2.00;;;30.30;75.20;;;;;;2585615;54;20027;31
2022/06/24 12:43:57;;;;;;;4.80;1.90;;;30.40;75.90;;;;;;2585041;54;20054;31
2022/06/24 12:52:45;;;;;;;4.50;1.85;;;30.40;75.00;;;;;;2585412;54;20883;31
2022/06/24 12:55:23;;;;;;;5.05;1.55;;;30.50;75.60;;;;;;2585326;54;20575;31
2022/06/24 12:57:59;;;;;;;3.90;1.75;;;30.60;75.40;;;;;;2584472;54;21059;31
2022/06/24 13:00:34;;;;;;;4.43;1.70;;;30.70;74.90;;;;;;2584325;54;20949;31
2022/06/24 13:03:09;;;;;;;6.05;1.85;;;30.60;74.70;;;;;;2584365;54;20026;31
2022/06/24 13:05:47;;;;;;;6.15;1.90;;;30.70;75.10;;;;;;2585295;54;20082;31
2022/06/24 13:08:23;;;;;;;4.10;2.05;;;30.70;75.20;;;;;;2681920;39;20327;31
2022/06/24 13:10:56;;;;;;;3.22;1.63;;;30.70;74.40;;;;;;2585080;54;20855;31
2022/06/24 13:13:32;;;;;;;7.55;2.42;;;30.70;75.10;;;;;;2604117;46;20026;31
2022/06/24 13:16:07;;;;;;;3.35;1.60;;;30.70;74.90;;;;;;2603313;46;20887;31
2022/06/24 13:18:47;;;;;;;3.78;1.80;;;30.70;74.70;;;;;;2604039;46;20100;31
2022/06/24 13:21:23;;;;;;;5.30;1.70;;;30.70;74.60;;;;;;2603503;46;20150;31
2022/06/24 13:23:59;;;;;;;9.10;1.73;;;30.80;75.20;;;;;;2584783;54;20947;31
2022/06/24 13:26:33;;;;;;;4.70;1.65;;;30.80;75.30;;;;;;2585109;54;21143;31
2022/06/24 13:29:10;;;;;;;6.97;1.77;;;30.70;74.40;;;;;;2604243;46;20035;31
2022/06/24 13:31:46;;;;;;;6.97;1.90;;;30.70;75.10;;;;;;2585195;54;20928;31
2022/06/24 13:34:23;;;;;;;5.35;1.50;;;30.70;74.30;;;;;;2584294;54;20879;31
2022/06/24 13:36:59;;;;;;;2.40;1.50;;;30.70;74.20;;;;;;2603964;46;20753;31
2022/06/24 13:39:35;;;;;;;;;;;30.70;74.60;;;;;;2585605;54;20143;31
2022/06/24 13:42:10;;;;;;;2.58;1.83;;;30.70;75.50;;;;;;2585265;54;20794;31
2022/06/24 13:44:44;;;;;;;1.45;1.30;;;30.70;74.80;;;;;;2585154;54;20026;31
2022/06/24 13:47:22;;;;;;;2.70;1.60;;;30.80;74.90;;;;;;2584129;54;20930;31
2022/06/24 13:49:59;;;;;;;3.53;1.67;;;30.80;74.00;;;;;;2584696;54;20030;31
2022/06/24 13:52:36;;;;;;;2.40;1.50;;;30.80;74.40;;;;;;2584863;54;20093;31
2022/06/24 13:55:18;;;;;;;5.03;1.80;;;30.80;74.70;;;;;;2585146;54;20935;31
2022/06/24 13:57:52;;;;;;;4.00;1.48;;;30.70;74.10;;;;;;2585340;54;20916;31
2022/06/24 14:00:28;;;;;;;4.55;1.60;;;30.80;73.90;;;;;;2585296;54;20730;31
2022/06/24 14:03:05;;;;;;;5.93;1.83;;;30.70;73.70;;;;;;2584258;54;20743;31
2022/06/24 14:05:44;;;;;;;2.30;1.30;;;30.70;74.50;;;;;;2584908;54;20947;31
2022/06/24 14:08:20;;;;;;;3.45;1.50;;;30.80;73.50;;;;;;2585147;54;20746;31
2022/06/24 14:10:59;;;;;;;4.30;1.60;;;30.80;74.20;;;;;;2584515;54;20987;31
2022/06/24 14:13:34;;;;;;;4.00;1.45;;;30.80;74.10;;;;;;2585107;54;19935;31
2022/06/24 14:16:08;;;;;;;3.58;1.40;;;30.70;74.40;;;;;;2584246;54;21917;31
2022/06/24 14:19:06;;;;;;;3.55;1.35;;;30.80;74.20;;;;;;2585110;54;20877;31
2022/06/24 14:21:40;;;;;;;3.93;1.83;;;30.70;73.40;;;;;;2584773;54;20945;31
2022/06/24 14:27:18;;;;;;;3.30;1.50;;;30.60;74.00;;;;;;2585268;54;20060;31
2022/06/24 14:29:53;;;;;;;2.38;1.38;;;30.60;72.90;;;;;;2603360;46;20027;31
2022/06/24 14:32:30;;;;;;;2.58;1.30;;;30.60;74.00;;;;;;2602843;46;20839;31